sensor_id;sensor_type;location;lat;lon;timestamp;P1;durP1;ratioP1;P2;durP2;ratioP2
16436;SDS011;8328;52.206;21.006;2023-05-27T00:00:04;8.53;;;3.43;;
16436;SDS011;8328;52.206;21.006;2023-05-27T00:02:31;7.57;;;2.67;;
16436;SDS011;8328;52.206;21.006;2023-05-27T00:04:57;7.93;;;2.40;;
16436;SDS011;8328;52.206;21.006;2023-05-27T00:07:23;7.30;;;2.67;;
16436;SDS011;8328;52.206;21.006;2023-05-27T00:09:49;9.90;;;2.93;;
16436;SDS011;8328;52.206;21.006;2023-05-27T00:12:14;10.97;;;2.87;;
16436;SDS011;8328;52.206;21.006;2023-05-27T00:14:40;11.00;;;2.87;;
16436;SDS011;8328;52.206;21.006;2023-05-27T00:17:06;8.70;;;2.73;;
16436;SDS011;8328;52.206;21.006;2023-05-27T00:19:34;5.93;;;2.47;;
16436;SDS011;8328;52.206;21.006;2023-05-27T00:22:00;9.63;;;3.07;;
16436;SDS011;8328;52.206;21.006;2023-05-27T00:24:26;6.83;;;2.97;;
16436;SDS011;8328;52.206;21.006;2023-05-27T00:26:52;6.93;;;2.80;;
16436;SDS011;8328;52.206;21.006;2023-05-27T00:29:18;8.33;;;2.90;;
16436;SDS011;8328;52.206;21.006;2023-05-27T00:31:44;14.07;;;3.50;;
16436;SDS011;8328;52.206;21.006;2023-05-27T00:34:10;9.33;;;3.33;;
16436;SDS011;8328;52.206;21.006;2023-05-27T00:36:36;10.07;;;2.47;;
16436;SDS011;8328;52.206;21.006;2023-05-27T00:39:01;8.00;;;2.83;;
16436;SDS011;8328;52.206;21.006;2023-05-27T00:41:28;7.60;;;2.77;;
16436;SDS011;8328;52.206;21.006;2023-05-27T00:43:55;10.70;;;2.97;;
16436;SDS011;8328;52.206;21.006;2023-05-27T00:46:21;9.17;;;2.63;;
16436;SDS011;8328;52.206;21.006;2023-05-27T00:48:47;8.10;;;3.00;;
16436;SDS011;8328;52.206;21.006;2023-05-27T00:51:14;11.40;;;3.27;;
16436;SDS011;8328;52.206;21.006;2023-05-27T00:53:40;6.50;;;2.70;;
16436;SDS011;8328;52.206;21.006;2023-05-27T00:56:07;9.03;;;2.80;;
16436;SDS011;8328;52.206;21.006;2023-05-27T00:58:40;10.87;;;3.23;;
16436;SDS011;8328;52.206;21.006;2023-05-27T01:01:07;9.47;;;3.33;;
16436;SDS011;8328;52.206;21.006;2023-05-27T01:03:33;8.23;;;3.10;;
16436;SDS011;8328;52.206;21.006;2023-05-27T01:06:05;9.43;;;3.13;;
16436;SDS011;8328;52.206;21.006;2023-05-27T01:11:41;7.83;;;2.57;;
16436;SDS011;8328;52.206;21.006;2023-05-27T01:14:13;8.43;;;3.03;;
16436;SDS011;8328;52.206;21.006;2023-05-27T01:16:41;8.57;;;3.17;;
16436;SDS011;8328;52.206;21.006;2023-05-27T01:19:13;9.50;;;3.60;;
16436;SDS011;8328;52.206;21.006;2023-05-27T01:21:45;10.33;;;2.70;;
16436;SDS011;8328;52.206;21.006;2023-05-27T01:24:18;10.37;;;3.70;;
16436;SDS011;8328;52.206;21.006;2023-05-27T01:26:46;9.80;;;3.03;;
16436;SDS011;8328;52.206;21.006;2023-05-27T01:29:12;8.57;;;3.00;;
16436;SDS011;8328;52.206;21.006;2023-05-27T01:31:42;8.27;;;2.77;;
16436;SDS011;8328;52.206;21.006;2023-05-27T01:34:17;7.23;;;2.93;;
16436;SDS011;8328;52.206;21.006;2023-05-27T01:36:50;6.77;;;3.00;;
16436;SDS011;8328;52.206;21.006;2023-05-27T01:39:21;7.83;;;2.70;;
16436;SDS011;8328;52.206;21.006;2023-05-27T01:41:48;12.23;;;2.83;;
16436;SDS011;8328;52.206;21.006;2023-05-27T01:44:15;7.37;;;2.53;;
16436;SDS011;8328;52.206;21.006;2023-05-27T01:46:42;8.13;;;2.80;;
16436;SDS011;8328;52.206;21.006;2023-05-27T01:49:09;5.90;;;2.57;;
16436;SDS011;8328;52.206;21.006;2023-05-27T01:51:35;12.70;;;3.17;;
16436;SDS011;8328;52.206;21.006;2023-05-27T01:54:03;9.57;;;3.13;;
16436;SDS011;8328;52.206;21.006;2023-05-27T01:56:28;7.87;;;2.50;;
16436;SDS011;8328;52.206;21.006;2023-05-27T01:58:54;8.03;;;3.00;;
16436;SDS011;8328;52.206;21.006;2023-05-27T02:01:20;7.83;;;2.63;;
16436;SDS011;8328;52.206;21.006;2023-05-27T02:03:49;10.60;;;2.80;;
16436;SDS011;8328;52.206;21.006;2023-05-27T02:06:15;13.17;;;3.00;;
16436;SDS011;8328;52.206;21.006;2023-05-27T02:08:41;7.83;;;2.93;;
16436;SDS011;8328;52.206;21.006;2023-05-27T02:11:06;8.37;;;3.00;;
16436;SDS011;8328;52.206;21.006;2023-05-27T02:13:32;6.03;;;3.00;;
16436;SDS011;8328;52.206;21.006;2023-05-27T02:15:58;8.83;;;2.90;;
16436;SDS011;8328;52.206;21.006;2023-05-27T02:18:24;6.83;;;2.80;;
16436;SDS011;8328;52.206;21.006;2023-05-27T02:20:50;10.13;;;3.47;;
16436;SDS011;8328;52.206;21.006;2023-05-27T02:23:16;9.80;;;2.97;;
16436;SDS011;8328;52.206;21.006;2023-05-27T02:25:41;9.73;;;2.80;;
16436;SDS011;8328;52.206;21.006;2023-05-27T02:28:07;7.30;;;2.87;;
16436;SDS011;8328;52.206;21.006;2023-05-27T02:30:33;10.20;;;3.10;;
16436;SDS011;8328;52.206;21.006;2023-05-27T02:32:59;9.83;;;2.83;;
16436;SDS011;8328;52.206;21.006;2023-05-27T02:35:25;7.87;;;2.97;;
16436;SDS011;8328;52.206;21.006;2023-05-27T02:37:50;8.90;;;2.80;;
16436;SDS011;8328;52.206;21.006;2023-05-27T02:40:23;9.57;;;2.77;;
16436;SDS011;8328;52.206;21.006;2023-05-27T02:42:50;7.93;;;2.80;;
16436;SDS011;8328;52.206;21.006;2023-05-27T02:45:15;8.17;;;2.80;;
16436;SDS011;8328;52.206;21.006;2023-05-27T02:47:41;9.57;;;2.97;;
16436;SDS011;8328;52.206;21.006;2023-05-27T02:50:07;7.60;;;3.00;;
16436;SDS011;8328;52.206;21.006;2023-05-27T02:52:33;8.47;;;2.80;;
16436;SDS011;8328;52.206;21.006;2023-05-27T02:55:00;7.77;;;3.20;;
16436;SDS011;8328;52.206;21.006;2023-05-27T02:57:25;7.80;;;3.00;;
16436;SDS011;8328;52.206;21.006;2023-05-27T02:59:51;8.33;;;3.03;;
16436;SDS011;8328;52.206;21.006;2023-05-27T03:02:17;9.07;;;3.20;;
16436;SDS011;8328;52.206;21.006;2023-05-27T03:04:43;9.13;;;3.17;;
16436;SDS011;8328;52.206;21.006;2023-05-27T03:07:08;10.20;;;3.23;;
16436;SDS011;8328;52.206;21.006;2023-05-27T03:09:34;9.53;;;3.03;;
16436;SDS011;8328;52.206;21.006;2023-05-27T03:12:00;11.00;;;3.30;;
16436;SDS011;8328;52.206;21.006;2023-05-27T03:14:26;13.67;;;3.07;;
16436;SDS011;8328;52.206;21.006;2023-05-27T03:16:53;8.10;;;3.07;;
16436;SDS011;8328;52.206;21.006;2023-05-27T03:19:19;6.00;;;2.83;;
16436;SDS011;8328;52.206;21.006;2023-05-27T03:21:46;6.43;;;2.90;;
16436;SDS011;8328;52.206;21.006;2023-05-27T03:24:11;6.57;;;2.70;;
16436;SDS011;8328;52.206;21.006;2023-05-27T03:26:38;10.33;;;2.87;;
16436;SDS011;8328;52.206;21.006;2023-05-27T03:29:04;9.07;;;3.10;;
16436;SDS011;8328;52.206;21.006;2023-05-27T03:31:29;7.50;;;3.07;;
16436;SDS011;8328;52.206;21.006;2023-05-27T03:33:55;9.50;;;2.90;;
16436;SDS011;8328;52.206;21.006;2023-05-27T03:36:21;7.90;;;2.80;;
16436;SDS011;8328;52.206;21.006;2023-05-27T03:38:47;8.43;;;3.50;;
16436;SDS011;8328;52.206;21.006;2023-05-27T03:41:13;9.03;;;3.00;;
16436;SDS011;8328;52.206;21.006;2023-05-27T03:43:39;7.27;;;3.47;;
16436;SDS011;8328;52.206;21.006;2023-05-27T03:46:04;11.37;;;3.03;;
16436;SDS011;8328;52.206;21.006;2023-05-27T03:48:31;9.57;;;2.60;;
16436;SDS011;8328;52.206;21.006;2023-05-27T03:50:57;9.63;;;2.70;;
16436;SDS011;8328;52.206;21.006;2023-05-27T03:53:23;10.30;;;2.80;;
16436;SDS011;8328;52.206;21.006;2023-05-27T03:55:49;7.43;;;2.87;;
16436;SDS011;8328;52.206;21.006;2023-05-27T03:58:15;7.33;;;2.73;;
16436;SDS011;8328;52.206;21.006;2023-05-27T04:00:41;7.63;;;2.50;;
16436;SDS011;8328;52.206;21.006;2023-05-27T04:03:08;10.27;;;2.97;;
16436;SDS011;8328;52.206;21.006;2023-05-27T04:05:34;9.83;;;2.80;;
16436;SDS011;8328;52.206;21.006;2023-05-27T04:08:01;10.37;;;3.10;;
16436;SDS011;8328;52.206;21.006;2023-05-27T04:10:28;9.03;;;3.10;;
16436;SDS011;8328;52.206;21.006;2023-05-27T04:12:54;6.57;;;2.97;;
16436;SDS011;8328;52.206;21.006;2023-05-27T04:15:20;6.77;;;3.00;;
16436;SDS011;8328;52.206;21.006;2023-05-27T04:17:46;8.87;;;3.03;;
16436;SDS011;8328;52.206;21.006;2023-05-27T04:20:12;9.60;;;2.97;;
16436;SDS011;8328;52.206;21.006;2023-05-27T04:22:41;8.23;;;2.90;;
16436;SDS011;8328;52.206;21.006;2023-05-27T04:25:07;8.70;;;2.93;;
16436;SDS011;8328;52.206;21.006;2023-05-27T04:27:33;6.53;;;2.90;;
16436;SDS011;8328;52.206;21.006;2023-05-27T04:30:00;6.83;;;2.80;;
16436;SDS011;8328;52.206;21.006;2023-05-27T04:32:26;9.73;;;2.67;;
16436;SDS011;8328;52.206;21.006;2023-05-27T04:34:55;6.90;;;2.90;;
16436;SDS011;8328;52.206;21.006;2023-05-27T04:37:22;8.37;;;2.73;;
16436;SDS011;8328;52.206;21.006;2023-05-27T04:39:48;8.93;;;3.30;;
16436;SDS011;8328;52.206;21.006;2023-05-27T04:42:14;8.83;;;3.17;;
16436;SDS011;8328;52.206;21.006;2023-05-27T04:44:40;9.37;;;2.80;;
16436;SDS011;8328;52.206;21.006;2023-05-27T04:47:06;6.30;;;2.53;;
16436;SDS011;8328;52.206;21.006;2023-05-27T04:49:32;9.67;;;3.17;;
16436;SDS011;8328;52.206;21.006;2023-05-27T04:51:59;7.67;;;2.70;;
16436;SDS011;8328;52.206;21.006;2023-05-27T04:54:25;7.07;;;2.70;;
16436;SDS011;8328;52.206;21.006;2023-05-27T04:56:52;5.13;;;2.67;;
16436;SDS011;8328;52.206;21.006;2023-05-27T04:59:17;5.17;;;2.47;;
16436;SDS011;8328;52.206;21.006;2023-05-27T05:01:46;7.97;;;2.67;;
16436;SDS011;8328;52.206;21.006;2023-05-27T05:04:35;6.53;;;2.60;;
16436;SDS011;8328;52.206;21.006;2023-05-27T05:07:02;5.17;;;2.10;;
16436;SDS011;8328;52.206;21.006;2023-05-27T05:09:29;7.17;;;3.17;;
16436;SDS011;8328;52.206;21.006;2023-05-27T05:11:55;7.73;;;2.77;;
16436;SDS011;8328;52.206;21.006;2023-05-27T05:14:21;5.47;;;2.93;;
16436;SDS011;8328;52.206;21.006;2023-05-27T05:16:47;7.60;;;2.83;;
16436;SDS011;8328;52.206;21.006;2023-05-27T05:19:12;7.20;;;2.70;;
16436;SDS011;8328;52.206;21.006;2023-05-27T05:21:38;6.47;;;2.60;;
16436;SDS011;8328;52.206;21.006;2023-05-27T05:24:04;6.53;;;2.30;;
16436;SDS011;8328;52.206;21.006;2023-05-27T05:26:31;7.03;;;3.13;;
16436;SDS011;8328;52.206;21.006;2023-05-27T05:28:57;5.73;;;2.47;;
16436;SDS011;8328;52.206;21.006;2023-05-27T05:31:23;4.27;;;2.40;;
16436;SDS011;8328;52.206;21.006;2023-05-27T05:33:49;6.47;;;2.27;;
16436;SDS011;8328;52.206;21.006;2023-05-27T05:36:15;6.03;;;2.30;;
16436;SDS011;8328;52.206;21.006;2023-05-27T05:38:43;5.77;;;2.20;;
16436;SDS011;8328;52.206;21.006;2023-05-27T05:41:09;8.37;;;2.50;;
16436;SDS011;8328;52.206;21.006;2023-05-27T05:43:35;3.70;;;2.13;;
16436;SDS011;8328;52.206;21.006;2023-05-27T05:46:00;5.83;;;2.37;;
16436;SDS011;8328;52.206;21.006;2023-05-27T05:48:27;4.63;;;2.10;;
16436;SDS011;8328;52.206;21.006;2023-05-27T05:50:53;5.30;;;2.20;;
16436;SDS011;8328;52.206;21.006;2023-05-27T05:53:19;6.73;;;2.47;;
16436;SDS011;8328;52.206;21.006;2023-05-27T05:55:44;6.63;;;2.10;;
16436;SDS011;8328;52.206;21.006;2023-05-27T05:58:10;4.37;;;2.20;;
16436;SDS011;8328;52.206;21.006;2023-05-27T06:00:37;5.63;;;2.37;;
16436;SDS011;8328;52.206;21.006;2023-05-27T06:03:04;5.33;;;2.20;;
16436;SDS011;8328;52.206;21.006;2023-05-27T06:05:30;6.67;;;2.33;;
16436;SDS011;8328;52.206;21.006;2023-05-27T06:07:55;6.23;;;2.03;;
16436;SDS011;8328;52.206;21.006;2023-05-27T06:10:21;5.63;;;2.40;;
16436;SDS011;8328;52.206;21.006;2023-05-27T06:12:47;5.50;;;2.13;;
16436;SDS011;8328;52.206;21.006;2023-05-27T06:15:13;4.27;;;1.93;;
16436;SDS011;8328;52.206;21.006;2023-05-27T06:17:39;6.03;;;1.90;;
16436;SDS011;8328;52.206;21.006;2023-05-27T06:20:06;4.17;;;2.10;;
16436;SDS011;8328;52.206;21.006;2023-05-27T06:22:32;7.13;;;2.23;;
16436;SDS011;8328;52.206;21.006;2023-05-27T06:24:58;4.50;;;1.70;;
16436;SDS011;8328;52.206;21.006;2023-05-27T06:27:25;7.10;;;2.47;;
16436;SDS011;8328;52.206;21.006;2023-05-27T06:29:53;3.97;;;2.10;;
16436;SDS011;8328;52.206;21.006;2023-05-27T06:32:18;5.90;;;2.27;;
16436;SDS011;8328;52.206;21.006;2023-05-27T06:34:45;6.00;;;3.00;;
16436;SDS011;8328;52.206;21.006;2023-05-27T06:37:11;7.50;;;3.33;;
16436;SDS011;8328;52.206;21.006;2023-05-27T06:39:37;3.53;;;2.07;;
16436;SDS011;8328;52.206;21.006;2023-05-27T06:42:03;4.83;;;2.00;;
16436;SDS011;8328;52.206;21.006;2023-05-27T06:44:29;5.23;;;2.03;;
16436;SDS011;8328;52.206;21.006;2023-05-27T06:46:55;5.13;;;1.90;;
16436;SDS011;8328;52.206;21.006;2023-05-27T06:49:20;8.53;;;2.17;;
16436;SDS011;8328;52.206;21.006;2023-05-27T06:51:46;10.47;;;1.93;;
16436;SDS011;8328;52.206;21.006;2023-05-27T06:54:12;6.87;;;2.20;;
16436;SDS011;8328;52.206;21.006;2023-05-27T06:56:38;7.17;;;2.43;;
16436;SDS011;8328;52.206;21.006;2023-05-27T06:59:04;7.63;;;2.20;;
16436;SDS011;8328;52.206;21.006;2023-05-27T07:01:29;4.07;;;1.90;;
16436;SDS011;8328;52.206;21.006;2023-05-27T07:03:56;5.97;;;2.40;;
16436;SDS011;8328;52.206;21.006;2023-05-27T07:06:22;7.17;;;4.67;;
16436;SDS011;8328;52.206;21.006;2023-05-27T07:08:48;8.87;;;2.50;;
16436;SDS011;8328;52.206;21.006;2023-05-27T07:11:14;4.43;;;2.30;;
16436;SDS011;8328;52.206;21.006;2023-05-27T07:13:40;6.00;;;2.07;;
16436;SDS011;8328;52.206;21.006;2023-05-27T07:16:05;6.73;;;3.17;;
16436;SDS011;8328;52.206;21.006;2023-05-27T07:18:31;7.53;;;2.00;;
16436;SDS011;8328;52.206;21.006;2023-05-27T07:20:57;6.37;;;2.23;;
16436;SDS011;8328;52.206;21.006;2023-05-27T07:23:23;3.37;;;1.90;;
16436;SDS011;8328;52.206;21.006;2023-05-27T07:25:49;4.30;;;1.90;;
16436;SDS011;8328;52.206;21.006;2023-05-27T07:28:15;5.00;;;2.27;;
16436;SDS011;8328;52.206;21.006;2023-05-27T07:30:41;3.80;;;2.20;;
16436;SDS011;8328;52.206;21.006;2023-05-27T07:33:07;3.57;;;2.07;;
16436;SDS011;8328;52.206;21.006;2023-05-27T07:35:33;3.33;;;1.80;;
16436;SDS011;8328;52.206;21.006;2023-05-27T07:37:59;3.67;;;1.90;;
16436;SDS011;8328;52.206;21.006;2023-05-27T07:40:25;4.60;;;1.97;;
16436;SDS011;8328;52.206;21.006;2023-05-27T07:42:51;4.63;;;1.67;;
16436;SDS011;8328;52.206;21.006;2023-05-27T07:45:17;2.90;;;1.67;;
16436;SDS011;8328;52.206;21.006;2023-05-27T07:47:42;4.67;;;1.80;;
16436;SDS011;8328;52.206;21.006;2023-05-27T07:50:08;4.33;;;1.37;;
16436;SDS011;8328;52.206;21.006;2023-05-27T07:52:34;3.53;;;1.60;;
16436;SDS011;8328;52.206;21.006;2023-05-27T07:55:00;6.37;;;1.27;;
16436;SDS011;8328;52.206;21.006;2023-05-27T07:57:26;5.37;;;1.70;;
16436;SDS011;8328;52.206;21.006;2023-05-27T07:59:51;3.50;;;1.40;;
16436;SDS011;8328;52.206;21.006;2023-05-27T08:02:17;9.53;;;1.70;;
16436;SDS011;8328;52.206;21.006;2023-05-27T08:04:44;2.33;;;1.43;;
16436;SDS011;8328;52.206;21.006;2023-05-27T08:07:10;1.93;;;1.10;;
16436;SDS011;8328;52.206;21.006;2023-05-27T08:09:36;19.30;;;1.80;;
16436;SDS011;8328;52.206;21.006;2023-05-27T08:12:02;4.07;;;1.20;;
16436;SDS011;8328;52.206;21.006;2023-05-27T08:14:28;7.00;;;1.60;;
16436;SDS011;8328;52.206;21.006;2023-05-27T08:16:54;4.43;;;2.30;;
16436;SDS011;8328;52.206;21.006;2023-05-27T08:19:20;3.43;;;1.37;;
16436;SDS011;8328;52.206;21.006;2023-05-27T08:21:46;4.33;;;1.90;;
16436;SDS011;8328;52.206;21.006;2023-05-27T08:24:12;3.10;;;1.47;;
16436;SDS011;8328;52.206;21.006;2023-05-27T08:26:39;4.20;;;1.60;;
16436;SDS011;8328;52.206;21.006;2023-05-27T08:29:05;2.90;;;1.37;;
16436;SDS011;8328;52.206;21.006;2023-05-27T08:31:31;4.83;;;1.70;;
16436;SDS011;8328;52.206;21.006;2023-05-27T08:33:57;2.37;;;1.30;;
16436;SDS011;8328;52.206;21.006;2023-05-27T08:36:23;4.00;;;1.40;;
16436;SDS011;8328;52.206;21.006;2023-05-27T08:38:49;4.03;;;1.17;;
16436;SDS011;8328;52.206;21.006;2023-05-27T08:41:14;3.10;;;1.23;;
16436;SDS011;8328;52.206;21.006;2023-05-27T08:43:41;7.13;;;2.40;;
16436;SDS011;8328;52.206;21.006;2023-05-27T08:46:08;3.33;;;1.33;;
16436;SDS011;8328;52.206;21.006;2023-05-27T08:48:36;2.83;;;1.50;;
16436;SDS011;8328;52.206;21.006;2023-05-27T08:51:02;2.17;;;1.27;;
16436;SDS011;8328;52.206;21.006;2023-05-27T08:53:28;4.30;;;1.63;;
16436;SDS011;8328;52.206;21.006;2023-05-27T08:55:57;4.63;;;1.50;;
16436;SDS011;8328;52.206;21.006;2023-05-27T08:58:26;4.40;;;1.37;;
16436;SDS011;8328;52.206;21.006;2023-05-27T09:00:53;1.73;;;1.10;;
16436;SDS011;8328;52.206;21.006;2023-05-27T09:03:19;2.53;;;1.30;;
16436;SDS011;8328;52.206;21.006;2023-05-27T09:05:46;2.10;;;1.30;;
16436;SDS011;8328;52.206;21.006;2023-05-27T09:08:12;2.73;;;1.30;;
16436;SDS011;8328;52.206;21.006;2023-05-27T09:10:40;3.90;;;1.77;;
16436;SDS011;8328;52.206;21.006;2023-05-27T09:13:07;3.90;;;1.37;;
16436;SDS011;8328;52.206;21.006;2023-05-27T09:15:34;2.40;;;1.30;;
16436;SDS011;8328;52.206;21.006;2023-05-27T09:18:01;2.07;;;1.10;;
16436;SDS011;8328;52.206;21.006;2023-05-27T09:20:29;3.93;;;1.33;;
16436;SDS011;8328;52.206;21.006;2023-05-27T09:22:58;1.80;;;1.13;;
16436;SDS011;8328;52.206;21.006;2023-05-27T09:25:28;4.37;;;1.50;;
16436;SDS011;8328;52.206;21.006;2023-05-27T09:27:54;4.10;;;1.27;;
16436;SDS011;8328;52.206;21.006;2023-05-27T09:30:22;2.83;;;1.20;;
16436;SDS011;8328;52.206;21.006;2023-05-27T09:32:50;4.10;;;1.50;;
16436;SDS011;8328;52.206;21.006;2023-05-27T09:35:16;3.57;;;1.30;;
16436;SDS011;8328;52.206;21.006;2023-05-27T09:37:42;2.53;;;1.30;;
16436;SDS011;8328;52.206;21.006;2023-05-27T09:40:10;2.00;;;1.30;;
16436;SDS011;8328;52.206;21.006;2023-05-27T09:45:08;2.33;;;1.20;;
16436;SDS011;8328;52.206;21.006;2023-05-27T09:47:41;3.73;;;1.50;;
16436;SDS011;8328;52.206;21.006;2023-05-27T09:50:15;1.57;;;1.33;;
16436;SDS011;8328;52.206;21.006;2023-05-27T09:52:43;5.10;;;1.40;;
16436;SDS011;8328;52.206;21.006;2023-05-27T09:55:10;2.60;;;1.30;;
16436;SDS011;8328;52.206;21.006;2023-05-27T09:57:37;2.07;;;0.80;;
16436;SDS011;8328;52.206;21.006;2023-05-27T10:00:05;2.57;;;1.30;;
16436;SDS011;8328;52.206;21.006;2023-05-27T10:02:45;1.50;;;0.90;;
16436;SDS011;8328;52.206;21.006;2023-05-27T10:05:12;4.07;;;1.20;;
16436;SDS011;8328;52.206;21.006;2023-05-27T10:07:40;2.97;;;1.90;;
16436;SDS011;8328;52.206;21.006;2023-05-27T10:10:08;7.33;;;4.97;;
16436;SDS011;8328;52.206;21.006;2023-05-27T10:12:36;2.97;;;1.20;;
16436;SDS011;8328;52.206;21.006;2023-05-27T10:15:04;4.03;;;1.40;;
16436;SDS011;8328;52.206;21.006;2023-05-27T10:17:46;5.47;;;1.50;;
16436;SDS011;8328;52.206;21.006;2023-05-27T10:20:32;5.07;;;1.30;;
16436;SDS011;8328;52.206;21.006;2023-05-27T10:23:35;2.80;;;1.10;;
16436;SDS011;8328;52.206;21.006;2023-05-27T10:25:56;2.90;;;1.30;;
16436;SDS011;8328;52.206;21.006;2023-05-27T10:28:33;2.10;;;1.20;;
16436;SDS011;8328;52.206;21.006;2023-05-27T10:33:37;2.57;;;1.20;;
16436;SDS011;8328;52.206;21.006;2023-05-27T10:36:06;2.73;;;1.10;;
16436;SDS011;8328;52.206;21.006;2023-05-27T10:38:36;2.23;;;1.37;;
16436;SDS011;8328;52.206;21.006;2023-05-27T10:41:03;5.23;;;1.73;;
16436;SDS011;8328;52.206;21.006;2023-05-27T10:43:31;3.00;;;1.43;;
16436;SDS011;8328;52.206;21.006;2023-05-27T10:46:06;1.57;;;1.40;;
16436;SDS011;8328;52.206;21.006;2023-05-27T10:48:39;3.27;;;1.10;;
16436;SDS011;8328;52.206;21.006;2023-05-27T10:51:05;2.23;;;1.30;;
16436;SDS011;8328;52.206;21.006;2023-05-27T10:53:34;3.17;;;1.33;;
16436;SDS011;8328;52.206;21.006;2023-05-27T10:56:03;3.87;;;1.50;;
16436;SDS011;8328;52.206;21.006;2023-05-27T10:58:29;4.93;;;1.10;;
16436;SDS011;8328;52.206;21.006;2023-05-27T11:01:00;2.10;;;1.20;;
16436;SDS011;8328;52.206;21.006;2023-05-27T11:03:33;5.40;;;1.40;;
16436;SDS011;8328;52.206;21.006;2023-05-27T11:06:00;2.07;;;1.10;;
16436;SDS011;8328;52.206;21.006;2023-05-27T11:08:28;2.97;;;1.07;;
16436;SDS011;8328;52.206;21.006;2023-05-27T11:11:01;2.23;;;1.30;;
16436;SDS011;8328;52.206;21.006;2023-05-27T11:15:57;3.07;;;1.20;;
16436;SDS011;8328;52.206;21.006;2023-05-27T11:18:24;2.73;;;1.50;;
16436;SDS011;8328;52.206;21.006;2023-05-27T11:20:49;5.87;;;1.33;;
16436;SDS011;8328;52.206;21.006;2023-05-27T11:23:15;2.57;;;0.90;;
16436;SDS011;8328;52.206;21.006;2023-05-27T11:25:42;6.20;;;1.73;;
16436;SDS011;8328;52.206;21.006;2023-05-27T11:28:15;4.10;;;1.40;;
16436;SDS011;8328;52.206;21.006;2023-05-27T11:30:42;4.03;;;1.30;;
16436;SDS011;8328;52.206;21.006;2023-05-27T11:33:08;3.27;;;1.53;;
16436;SDS011;8328;52.206;21.006;2023-05-27T11:35:34;2.73;;;1.33;;
16436;SDS011;8328;52.206;21.006;2023-05-27T11:38:00;2.27;;;1.27;;
16436;SDS011;8328;52.206;21.006;2023-05-27T11:40:36;4.53;;;1.20;;
16436;SDS011;8328;52.206;21.006;2023-05-27T11:43:02;2.13;;;1.27;;
16436;SDS011;8328;52.206;21.006;2023-05-27T11:45:28;2.67;;;1.27;;
16436;SDS011;8328;52.206;21.006;2023-05-27T11:47:56;2.37;;;1.20;;
16436;SDS011;8328;52.206;21.006;2023-05-27T11:50:24;2.83;;;1.20;;
16436;SDS011;8328;52.206;21.006;2023-05-27T11:52:53;4.40;;;1.40;;
16436;SDS011;8328;52.206;21.006;2023-05-27T11:55:20;4.63;;;1.27;;
16436;SDS011;8328;52.206;21.006;2023-05-27T11:57:49;3.57;;;1.10;;
16436;SDS011;8328;52.206;21.006;2023-05-27T12:00:16;2.27;;;1.20;;
16436;SDS011;8328;52.206;21.006;2023-05-27T12:02:44;5.27;;;1.10;;
16436;SDS011;8328;52.206;21.006;2023-05-27T12:05:11;3.57;;;1.00;;
16436;SDS011;8328;52.206;21.006;2023-05-27T12:07:36;3.90;;;1.27;;
16436;SDS011;8328;52.206;21.006;2023-05-27T12:10:06;5.87;;;1.40;;
16436;SDS011;8328;52.206;21.006;2023-05-27T12:12:32;1.10;;;0.80;;
16436;SDS011;8328;52.206;21.006;2023-05-27T12:14:59;2.97;;;1.30;;
16436;SDS011;8328;52.206;21.006;2023-05-27T12:17:25;2.57;;;1.33;;
16436;SDS011;8328;52.206;21.006;2023-05-27T12:19:51;1.77;;;1.00;;
16436;SDS011;8328;52.206;21.006;2023-05-27T12:22:17;2.17;;;1.10;;
16436;SDS011;8328;52.206;21.006;2023-05-27T12:24:43;1.63;;;1.10;;
16436;SDS011;8328;52.206;21.006;2023-05-27T12:27:09;5.43;;;1.33;;
16436;SDS011;8328;52.206;21.006;2023-05-27T12:29:35;2.80;;;1.20;;
16436;SDS011;8328;52.206;21.006;2023-05-27T12:32:00;3.90;;;1.13;;
16436;SDS011;8328;52.206;21.006;2023-05-27T12:34:26;2.20;;;1.27;;
16436;SDS011;8328;52.206;21.006;2023-05-27T12:36:52;4.53;;;1.30;;
16436;SDS011;8328;52.206;21.006;2023-05-27T12:39:18;2.07;;;1.30;;
16436;SDS011;8328;52.206;21.006;2023-05-27T12:41:44;2.50;;;1.13;;
16436;SDS011;8328;52.206;21.006;2023-05-27T12:44:10;1.50;;;1.07;;
16436;SDS011;8328;52.206;21.006;2023-05-27T12:46:36;2.53;;;1.30;;
16436;SDS011;8328;52.206;21.006;2023-05-27T12:49:03;2.10;;;1.00;;
16436;SDS011;8328;52.206;21.006;2023-05-27T12:51:29;2.73;;;1.20;;
16436;SDS011;8328;52.206;21.006;2023-05-27T12:53:55;1.57;;;1.10;;
16436;SDS011;8328;52.206;21.006;2023-05-27T12:56:21;6.83;;;1.47;;
16436;SDS011;8328;52.206;21.006;2023-05-27T12:58:47;1.70;;;1.10;;
16436;SDS011;8328;52.206;21.006;2023-05-27T13:01:13;1.47;;;1.10;;
16436;SDS011;8328;52.206;21.006;2023-05-27T13:03:39;2.97;;;1.43;;
16436;SDS011;8328;52.206;21.006;2023-05-27T13:06:04;2.10;;;1.30;;
16436;SDS011;8328;52.206;21.006;2023-05-27T13:08:31;2.50;;;1.10;;
16436;SDS011;8328;52.206;21.006;2023-05-27T13:10:56;1.40;;;1.10;;
16436;SDS011;8328;52.206;21.006;2023-05-27T13:13:22;3.30;;;1.33;;
16436;SDS011;8328;52.206;21.006;2023-05-27T13:15:48;2.47;;;1.10;;
16436;SDS011;8328;52.206;21.006;2023-05-27T13:18:14;6.20;;;1.50;;
16436;SDS011;8328;52.206;21.006;2023-05-27T13:20:40;4.70;;;1.10;;
16436;SDS011;8328;52.206;21.006;2023-05-27T13:23:06;1.35;;;1.10;;
16436;SDS011;8328;52.206;21.006;2023-05-27T13:25:32;2.72;;;1.30;;
16436;SDS011;8328;52.206;21.006;2023-05-27T13:27:58;1.92;;;1.17;;
16436;SDS011;8328;52.206;21.006;2023-05-27T13:30:24;1.60;;;1.20;;
16436;SDS011;8328;52.206;21.006;2023-05-27T13:32:50;2.80;;;1.10;;
16436;SDS011;8328;52.206;21.006;2023-05-27T13:35:16;8.13;;;1.50;;
16436;SDS011;8328;52.206;21.006;2023-05-27T13:37:42;2.90;;;1.48;;
16436;SDS011;8328;52.206;21.006;2023-05-27T13:40:08;2.95;;;1.23;;
16436;SDS011;8328;52.206;21.006;2023-05-27T13:42:35;4.03;;;1.30;;
16436;SDS011;8328;52.206;21.006;2023-05-27T13:45:02;2.78;;;1.15;;
16436;SDS011;8328;52.206;21.006;2023-05-27T13:47:28;3.80;;;1.33;;
16436;SDS011;8328;52.206;21.006;2023-05-27T13:49:54;2.80;;;1.70;;
16436;SDS011;8328;52.206;21.006;2023-05-27T13:52:20;1.92;;;1.42;;
16436;SDS011;8328;52.206;21.006;2023-05-27T13:54:45;3.38;;;1.50;;
16436;SDS011;8328;52.206;21.006;2023-05-27T13:57:11;3.67;;;1.50;;
16436;SDS011;8328;52.206;21.006;2023-05-27T13:59:37;5.90;;;1.65;;
16436;SDS011;8328;52.206;21.006;2023-05-27T14:02:03;3.63;;;1.40;;
16436;SDS011;8328;52.206;21.006;2023-05-27T14:04:33;4.30;;;1.38;;
16436;SDS011;8328;52.206;21.006;2023-05-27T14:06:59;6.70;;;1.90;;
16436;SDS011;8328;52.206;21.006;2023-05-27T14:09:25;2.78;;;1.33;;
16436;SDS011;8328;52.206;21.006;2023-05-27T14:11:51;4.20;;;1.17;;
16436;SDS011;8328;52.206;21.006;2023-05-27T14:14:17;4.72;;;1.30;;
16436;SDS011;8328;52.206;21.006;2023-05-27T14:16:43;2.50;;;1.20;;
16436;SDS011;8328;52.206;21.006;2023-05-27T14:19:09;3.90;;;1.63;;
16436;SDS011;8328;52.206;21.006;2023-05-27T14:21:34;3.58;;;1.45;;
16436;SDS011;8328;52.206;21.006;2023-05-27T14:24:00;3.25;;;1.50;;
16436;SDS011;8328;52.206;21.006;2023-05-27T14:26:26;8.73;;;1.60;;
16436;SDS011;8328;52.206;21.006;2023-05-27T14:28:52;1.40;;;1.30;;
16436;SDS011;8328;52.206;21.006;2023-05-27T14:31:18;2.30;;;1.33;;
16436;SDS011;8328;52.206;21.006;2023-05-27T14:33:44;3.63;;;1.50;;
16436;SDS011;8328;52.206;21.006;2023-05-27T14:36:10;3.90;;;1.42;;
16436;SDS011;8328;52.206;21.006;2023-05-27T14:38:36;4.60;;;1.60;;
16436;SDS011;8328;52.206;21.006;2023-05-27T14:41:02;3.53;;;1.60;;
16436;SDS011;8328;52.206;21.006;2023-05-27T14:43:28;5.05;;;1.63;;
16436;SDS011;8328;52.206;21.006;2023-05-27T14:45:54;2.25;;;1.38;;
16436;SDS011;8328;52.206;21.006;2023-05-27T14:48:19;2.65;;;1.50;;
16436;SDS011;8328;52.206;21.006;2023-05-27T14:50:45;4.32;;;1.50;;
16436;SDS011;8328;52.206;21.006;2023-05-27T14:53:11;3.45;;;1.73;;
16436;SDS011;8328;52.206;21.006;2023-05-27T14:55:37;2.63;;;1.55;;